Terminal Aerodrome Forecast
Issued by NWS Lake Charles, LA

Home | Current Version | Previous Version | Text Only | Print | Product List | Glossary On
Versions: 1 2 3 4 5 6 7 8 9 10 11 12 13 14 15
000
FTUS44 KLCH 181100
TAFAEX
TAF
KAEX 181120Z 1812/1912 08004KT P6SM VCSH OVC025
     FM181800 07004KT P6SM VCSH OVC015
      TEMPO 1818/1822 2SM -RA BR OVC007
     FM182200 07005KT P6SM VCSH OVC007 PROB30 1904/1910 2SM -RA BR
     FM191000 10007KT 2SM -RA BR OVC007=

USA.gov is the U.S. government's official web portal to all federal, state and local government web resources and services.